Cammack, Indiana
Current Conditions -  °F | °C
As of 4:53 PM on Monday 22 Dec 2014 (Local Time) from KMIE Reporting Station
Overcast Overcast  
Wind Chill: 35°   Ceiling: 7500
Heat Index: 41°   Visibility: 8mi
Dew Point: 36°   Wind: 9mph
Humidity: 82%   Direction: 110°ESE
Pressure: 29.8"   Gusts: NA
Location:  40.2341°N, 85.4639°W
Report Text: KMIE 222153Z 11008KT 8SM BKN075 OVC100 05/02 A2980 RMK AO2 SLP094 T00500022
Loading
Personal Weather Stations






























Interactive Weather Map New forecast layout! Learn more

10-Day Weather Forecast

Advertisements
Track Severe Weather on mobile